Boulevard, CA (91905)

12:07 PM PDT on August 30, 2014 (GMT -0700)
De Anza Springs Resort | Change Station
CLOSE
Current Station
Personal Weather Station
Location: Jacumba Hot Springs, CA
Elevation: 2753 ft
Nearby Weather Stations

Elev 2753 ft 32.65 °N, 116.18 °W | Updated 3 minutes ago

Clear
Clear
108.5 °F
Feels Like 103 °F
N
5.3
Wind Variable Wind from West

Today
High -- | Low -- °F
--% Chance of Precip.
Yesterday
High -- | Low -- °F
Precip. -- in
6:18 AM 7:12 PM
Waxing Crescent, 24% visible
Pressure 29.77 in
Visibility -9999.0 miles
Clouds
Heat Index 103 °F
Dew Point 40 °F
Humidity 10%
Rainfall 0.00 in
Snow Depth Not available.
UV Not available.
Pollen 8.10 out of 12
Air Quality Not available.
Flu Activity Not available.
METAR KCZZ 301852Z AUTO 23007KT 35/02 A2988 RMK AO1 SLP079 T03500022

More Conditions Fewer Conditions

Pressure 29.77 in
Visibility -9999.0 miles
Clouds
Heat Index 103 °F
Dew Point 40 °F
Humidity 10%
Rainfall 0.00 in
Snow Depth Not available.
UV Not available.
Pollen 8.10 out of 12
Air Quality Not available.
Flu Activity Not available.
METAR KCZZ 301852Z AUTO 23007KT 35/02 A2988 RMK AO1 SLP079 T03500022

More Conditions Fewer Conditions

10-Day Weather Forecast

Almanac

Astronomy

Aug. 30, 2014 Rise Set
Actual Time 6:18 AM PDT 7:12 PM PDT
Civil Twilight 5:53 AM PDT 7:37 PM PDT
Nautical Twilight 5:23 AM PDT 8:07 PM PDT
Astronomical Twilight 4:53 AM PDT 8:37 PM PDT
Moon 10:53 AM PDT 10:07 PM PDT
Length of Visible Light 13h 43m
Length of Day
12h 53m
Tomorrow will be 1m 55s shorter.
Waxing Crescent, 24% of the Moon is Illuminated
Today
Waxing Crescent
Sep 2
First Quarter
Sep 8
Full
Sep 15
Last Quarter
Sep 24
New

Today's Extremes

State Highs State Lows

Community

WunderPhotos

Upload Photos

1,748,596 photos uploaded!

WunderBlogs® & News

Nearby

Snow Depth

Station Depth Elevation
Leavitt Meadows 0 in 7200 ft
Summit Meadow 0 in 9122 ft
Monitor Pass 0 in 8350 ft
Blue Lakes 0 in 8000 ft
Forestdale Creek 0 in 8029 ft

Earthquake Activity

City Distance Mag. Time & Date
No recent earthquake activity has been reported nearby.
Minimum magnitude displayed is 2.5.

Coastal Water Temperatures

Place Temperature
No Stations Reporting

Nearby Weather Stations